sensor_id;sensor_type;location;lat;lon;timestamp;temperature;humidity
6174;DHT22;3120;48.796;9.796;2023-05-13T00:01:05;10.90;99.90
6174;DHT22;3120;48.796;9.796;2023-05-13T00:03:31;10.80;99.90
6174;DHT22;3120;48.796;9.796;2023-05-13T00:05:57;10.80;99.90
6174;DHT22;3120;48.796;9.796;2023-05-13T00:08:23;10.80;99.90
6174;DHT22;3120;48.796;9.796;2023-05-13T00:10:48;10.80;99.90
6174;DHT22;3120;48.796;9.796;2023-05-13T00:13:14;10.80;99.90
6174;DHT22;3120;48.796;9.796;2023-05-13T00:15:40;10.80;99.90
6174;DHT22;3120;48.796;9.796;2023-05-13T00:18:06;10.80;99.90
6174;DHT22;3120;48.796;9.796;2023-05-13T00:20:32;10.80;99.90
6174;DHT22;3120;48.796;9.796;2023-05-13T00:22:57;10.80;99.90
6174;DHT22;3120;48.796;9.796;2023-05-13T00:25:23;10.70;99.90
6174;DHT22;3120;48.796;9.796;2023-05-13T00:27:48;10.70;99.90
6174;DHT22;3120;48.796;9.796;2023-05-13T00:30:14;10.70;99.90
6174;DHT22;3120;48.796;9.796;2023-05-13T00:32:40;10.70;99.90
6174;DHT22;3120;48.796;9.796;2023-05-13T00:35:05;10.70;99.90
6174;DHT22;3120;48.796;9.796;2023-05-13T00:37:31;10.60;99.90
6174;DHT22;3120;48.796;9.796;2023-05-13T00:39:57;10.60;99.90
6174;DHT22;3120;48.796;9.796;2023-05-13T00:42:22;10.50;99.90
6174;DHT22;3120;48.796;9.796;2023-05-13T00:44:48;10.60;99.90
6174;DHT22;3120;48.796;9.796;2023-05-13T00:47:13;10.50;99.90
6174;DHT22;3120;48.796;9.796;2023-05-13T00:49:41;10.40;99.90
6174;DHT22;3120;48.796;9.796;2023-05-13T00:52:06;10.40;99.90
6174;DHT22;3120;48.796;9.796;2023-05-13T00:54:32;10.40;99.90
6174;DHT22;3120;48.796;9.796;2023-05-13T00:56:59;10.30;99.90
6174;DHT22;3120;48.796;9.796;2023-05-13T00:59:28;10.20;99.90
6174;DHT22;3120;48.796;9.796;2023-05-13T01:02:31;10.20;99.90
6174;DHT22;3120;48.796;9.796;2023-05-13T01:05:25;10.10;99.90
6174;DHT22;3120;48.796;9.796;2023-05-13T01:08:05;10.10;99.90
6174;DHT22;3120;48.796;9.796;2023-05-13T01:10:41;10.10;99.90
6174;DHT22;3120;48.796;9.796;2023-05-13T01:13:11;10.00;99.90
6174;DHT22;3120;48.796;9.796;2023-05-13T01:15:43;10.00;99.90
6174;DHT22;3120;48.796;9.796;2023-05-13T01:18:12;10.00;99.90
6174;DHT22;3120;48.796;9.796;2023-05-13T01:20:41;10.10;99.90
6174;DHT22;3120;48.796;9.796;2023-05-13T01:23:11;10.10;99.90
6174;DHT22;3120;48.796;9.796;2023-05-13T01:25:38;10.00;99.90
6174;DHT22;3120;48.796;9.796;2023-05-13T01:28:05;10.10;99.90
6174;DHT22;3120;48.796;9.796;2023-05-13T01:30:31;10.10;99.90
6174;DHT22;3120;48.796;9.796;2023-05-13T01:32:57;10.10;99.90
6174;DHT22;3120;48.796;9.796;2023-05-13T01:35:24;10.10;99.90
6174;DHT22;3120;48.796;9.796;2023-05-13T01:37:51;10.00;99.90
6174;DHT22;3120;48.796;9.796;2023-05-13T01:40:17;10.00;99.90
6174;DHT22;3120;48.796;9.796;2023-05-13T01:42:43;10.10;99.90
6174;DHT22;3120;48.796;9.796;2023-05-13T01:45:09;10.10;99.90
6174;DHT22;3120;48.796;9.796;2023-05-13T01:47:34;10.10;99.90
6174;DHT22;3120;48.796;9.796;2023-05-13T01:50:00;10.00;99.90
6174;DHT22;3120;48.796;9.796;2023-05-13T01:52:26;10.00;99.90
6174;DHT22;3120;48.796;9.796;2023-05-13T01:54:51;10.00;99.90
6174;DHT22;3120;48.796;9.796;2023-05-13T01:57:17;10.00;99.90
6174;DHT22;3120;48.796;9.796;2023-05-13T01:59:42;9.90;99.90
6174;DHT22;3120;48.796;9.796;2023-05-13T02:02:08;10.00;99.90
6174;DHT22;3120;48.796;9.796;2023-05-13T02:04:34;9.90;99.90
6174;DHT22;3120;48.796;9.796;2023-05-13T02:06:59;9.90;99.90
6174;DHT22;3120;48.796;9.796;2023-05-13T02:09:25;9.90;99.90
6174;DHT22;3120;48.796;9.796;2023-05-13T02:11:50;9.90;99.90
6174;DHT22;3120;48.796;9.796;2023-05-13T02:14:16;9.90;99.90
6174;DHT22;3120;48.796;9.796;2023-05-13T02:16:41;9.90;99.90
6174;DHT22;3120;48.796;9.796;2023-05-13T02:19:07;9.90;99.90
6174;DHT22;3120;48.796;9.796;2023-05-13T02:21:33;9.90;99.90
6174;DHT22;3120;48.796;9.796;2023-05-13T02:23:58;9.90;99.90
6174;DHT22;3120;48.796;9.796;2023-05-13T02:26:24;9.90;99.90
6174;DHT22;3120;48.796;9.796;2023-05-13T02:28:49;9.90;99.90
6174;DHT22;3120;48.796;9.796;2023-05-13T02:31:15;9.80;99.90
6174;DHT22;3120;48.796;9.796;2023-05-13T02:33:41;9.80;99.90
6174;DHT22;3120;48.796;9.796;2023-05-13T02:36:06;9.80;99.90
6174;DHT22;3120;48.796;9.796;2023-05-13T02:38:32;9.90;99.90
6174;DHT22;3120;48.796;9.796;2023-05-13T02:40:59;9.90;99.90
6174;DHT22;3120;48.796;9.796;2023-05-13T02:43:24;9.80;99.90
6174;DHT22;3120;48.796;9.796;2023-05-13T02:45:51;9.80;99.90
6174;DHT22;3120;48.796;9.796;2023-05-13T02:48:17;9.80;99.90
6174;DHT22;3120;48.796;9.796;2023-05-13T02:50:43;9.80;99.90
6174;DHT22;3120;48.796;9.796;2023-05-13T02:53:09;9.80;99.90
6174;DHT22;3120;48.796;9.796;2023-05-13T02:55:34;9.70;99.90
6174;DHT22;3120;48.796;9.796;2023-05-13T02:58:00;9.70;99.90
6174;DHT22;3120;48.796;9.796;2023-05-13T03:00:25;9.80;99.90
6174;DHT22;3120;48.796;9.796;2023-05-13T03:02:51;9.80;99.90
6174;DHT22;3120;48.796;9.796;2023-05-13T03:05:17;9.80;99.90
6174;DHT22;3120;48.796;9.796;2023-05-13T03:07:42;9.80;99.90
6174;DHT22;3120;48.796;9.796;2023-05-13T03:10:08;9.70;99.90
6174;DHT22;3120;48.796;9.796;2023-05-13T03:12:34;9.80;99.90
6174;DHT22;3120;48.796;9.796;2023-05-13T03:14:59;9.80;99.90
6174;DHT22;3120;48.796;9.796;2023-05-13T03:17:25;9.80;99.90
6174;DHT22;3120;48.796;9.796;2023-05-13T03:19:51;9.80;99.90
6174;DHT22;3120;48.796;9.796;2023-05-13T03:22:16;9.80;99.90
6174;DHT22;3120;48.796;9.796;2023-05-13T03:24:42;9.80;99.90
6174;DHT22;3120;48.796;9.796;2023-05-13T03:27:08;9.80;99.90
6174;DHT22;3120;48.796;9.796;2023-05-13T03:29:34;9.70;99.90
6174;DHT22;3120;48.796;9.796;2023-05-13T03:32:00;9.70;99.90
6174;DHT22;3120;48.796;9.796;2023-05-13T03:34:25;9.80;99.90
6174;DHT22;3120;48.796;9.796;2023-05-13T03:36:51;9.80;99.90
6174;DHT22;3120;48.796;9.796;2023-05-13T03:39:16;9.80;99.90
6174;DHT22;3120;48.796;9.796;2023-05-13T03:41:42;9.80;99.90
6174;DHT22;3120;48.796;9.796;2023-05-13T03:44:07;9.80;99.90
6174;DHT22;3120;48.796;9.796;2023-05-13T03:46:33;9.80;99.90
6174;DHT22;3120;48.796;9.796;2023-05-13T03:48:58;9.80;99.90
6174;DHT22;3120;48.796;9.796;2023-05-13T03:51:24;9.90;99.90
6174;DHT22;3120;48.796;9.796;2023-05-13T03:53:50;9.80;99.90
6174;DHT22;3120;48.796;9.796;2023-05-13T03:56:15;9.80;99.90
6174;DHT22;3120;48.796;9.796;2023-05-13T03:58:41;9.90;99.90
6174;DHT22;3120;48.796;9.796;2023-05-13T04:01:07;9.90;99.90
6174;DHT22;3120;48.796;9.796;2023-05-13T04:03:33;9.90;99.90
6174;DHT22;3120;48.796;9.796;2023-05-13T04:05:59;9.90;99.90
6174;DHT22;3120;48.796;9.796;2023-05-13T04:08:25;9.90;99.90
6174;DHT22;3120;48.796;9.796;2023-05-13T04:10:51;9.90;99.90
6174;DHT22;3120;48.796;9.796;2023-05-13T04:13:17;9.90;99.90
6174;DHT22;3120;48.796;9.796;2023-05-13T04:15:43;10.30;99.90
6174;DHT22;3120;48.796;9.796;2023-05-13T04:18:09;10.00;99.90
6174;DHT22;3120;48.796;9.796;2023-05-13T04:20:37;10.00;99.90
6174;DHT22;3120;48.796;9.796;2023-05-13T04:23:04;10.00;99.90
6174;DHT22;3120;48.796;9.796;2023-05-13T04:25:29;10.00;99.90
6174;DHT22;3120;48.796;9.796;2023-05-13T04:27:55;10.00;99.90
6174;DHT22;3120;48.796;9.796;2023-05-13T04:30:20;10.10;99.90
6174;DHT22;3120;48.796;9.796;2023-05-13T04:32:46;10.10;99.90
6174;DHT22;3120;48.796;9.796;2023-05-13T04:35:12;10.10;99.90
6174;DHT22;3120;48.796;9.796;2023-05-13T04:37:37;10.20;99.90
6174;DHT22;3120;48.796;9.796;2023-05-13T04:40:03;10.20;99.90
6174;DHT22;3120;48.796;9.796;2023-05-13T04:42:29;10.20;99.90
6174;DHT22;3120;48.796;9.796;2023-05-13T04:44:54;10.20;99.90
6174;DHT22;3120;48.796;9.796;2023-05-13T04:47:21;10.20;99.90
6174;DHT22;3120;48.796;9.796;2023-05-13T04:49:46;10.20;99.90
6174;DHT22;3120;48.796;9.796;2023-05-13T04:52:12;10.20;99.90
6174;DHT22;3120;48.796;9.796;2023-05-13T04:54:38;10.20;99.90
6174;DHT22;3120;48.796;9.796;2023-05-13T04:57:04;10.20;99.90
6174;DHT22;3120;48.796;9.796;2023-05-13T04:59:30;10.20;99.90
6174;DHT22;3120;48.796;9.796;2023-05-13T05:01:56;10.30;99.90
6174;DHT22;3120;48.796;9.796;2023-05-13T05:04:23;10.30;99.90
6174;DHT22;3120;48.796;9.796;2023-05-13T05:06:48;10.30;99.90
6174;DHT22;3120;48.796;9.796;2023-05-13T05:09:14;10.40;99.90
6174;DHT22;3120;48.796;9.796;2023-05-13T05:11:40;10.40;99.90
6174;DHT22;3120;48.796;9.796;2023-05-13T05:14:05;10.40;99.90
6174;DHT22;3120;48.796;9.796;2023-05-13T05:16:31;10.60;99.90
6174;DHT22;3120;48.796;9.796;2023-05-13T05:18:56;10.50;91.40
6174;DHT22;3120;48.796;9.796;2023-05-13T05:21:22;10.50;99.90
6174;DHT22;3120;48.796;9.796;2023-05-13T05:23:48;10.60;99.90
6174;DHT22;3120;48.796;9.796;2023-05-13T05:26:13;10.60;91.50
6174;DHT22;3120;48.796;9.796;2023-05-13T05:28:41;10.70;99.90
6174;DHT22;3120;48.796;9.796;2023-05-13T05:31:07;10.70;98.80
6174;DHT22;3120;48.796;9.796;2023-05-13T05:33:34;10.70;59.10
6174;DHT22;3120;48.796;9.796;2023-05-13T05:36:00;10.80;73.00
6174;DHT22;3120;48.796;9.796;2023-05-13T05:38:26;10.80;1.00
6174;DHT22;3120;48.796;9.796;2023-05-13T05:40:52;10.90;1.00
6174;DHT22;3120;48.796;9.796;2023-05-13T05:43:17;10.80;1.00
6174;DHT22;3120;48.796;9.796;2023-05-13T05:45:43;10.80;14.60
6174;DHT22;3120;48.796;9.796;2023-05-13T05:48:09;10.80;1.00
6174;DHT22;3120;48.796;9.796;2023-05-13T05:50:34;10.90;1.00
6174;DHT22;3120;48.796;9.796;2023-05-13T05:53:01;10.90;1.00
6174;DHT22;3120;48.796;9.796;2023-05-13T05:55:27;10.90;1.00
6174;DHT22;3120;48.796;9.796;2023-05-13T05:57:56;11.00;1.00
6174;DHT22;3120;48.796;9.796;2023-05-13T06:00:22;11.00;1.00
6174;DHT22;3120;48.796;9.796;2023-05-13T06:02:48;11.00;1.00
6174;DHT22;3120;48.796;9.796;2023-05-13T06:05:13;11.00;1.00
6174;DHT22;3120;48.796;9.796;2023-05-13T06:07:39;11.10;1.00
6174;DHT22;3120;48.796;9.796;2023-05-13T06:10:06;11.10;1.00
6174;DHT22;3120;48.796;9.796;2023-05-13T06:12:31;11.20;1.00
6174;DHT22;3120;48.796;9.796;2023-05-13T06:14:57;11.10;1.00
6174;DHT22;3120;48.796;9.796;2023-05-13T06:17:23;11.20;1.00
6174;DHT22;3120;48.796;9.796;2023-05-13T06:19:49;11.20;1.00
6174;DHT22;3120;48.796;9.796;2023-05-13T06:22:15;11.20;1.00
6174;DHT22;3120;48.796;9.796;2023-05-13T06:24:40;11.30;1.00
6174;DHT22;3120;48.796;9.796;2023-05-13T06:27:09;11.30;99.90
6174;DHT22;3120;48.796;9.796;2023-05-13T06:29:35;11.30;99.90
6174;DHT22;3120;48.796;9.796;2023-05-13T06:32:01;11.40;1.00
6174;DHT22;3120;48.796;9.796;2023-05-13T06:34:27;11.40;99.90
6174;DHT22;3120;48.796;9.796;2023-05-13T06:36:52;11.40;1.00
6174;DHT22;3120;48.796;9.796;2023-05-13T06:39:18;11.50;99.90
6174;DHT22;3120;48.796;9.796;2023-05-13T06:41:43;11.60;99.90
6174;DHT22;3120;48.796;9.796;2023-05-13T06:44:09;11.60;99.90
6174;DHT22;3120;48.796;9.796;2023-05-13T06:46:35;11.60;99.90
6174;DHT22;3120;48.796;9.796;2023-05-13T06:49:00;11.60;1.00
6174;DHT22;3120;48.796;9.796;2023-05-13T06:51:26;11.70;1.00
6174;DHT22;3120;48.796;9.796;2023-05-13T06:53:53;11.60;1.00
6174;DHT22;3120;48.796;9.796;2023-05-13T06:56:19;11.70;99.90
6174;DHT22;3120;48.796;9.796;2023-05-13T06:58:52;11.70;99.90
6174;DHT22;3120;48.796;9.796;2023-05-13T07:01:18;11.70;1.00
6174;DHT22;3120;48.796;9.796;2023-05-13T07:03:44;11.70;99.90
6174;DHT22;3120;48.796;9.796;2023-05-13T07:06:10;11.80;99.90
6174;DHT22;3120;48.796;9.796;2023-05-13T07:08:36;11.90;99.90
6174;DHT22;3120;48.796;9.796;2023-05-13T07:11:01;11.90;99.90
6174;DHT22;3120;48.796;9.796;2023-05-13T07:13:27;11.90;99.90
6174;DHT22;3120;48.796;9.796;2023-05-13T07:15:53;11.90;99.90
6174;DHT22;3120;48.796;9.796;2023-05-13T07:18:19;12.00;99.90
6174;DHT22;3120;48.796;9.796;2023-05-13T07:20:44;12.00;99.90
6174;DHT22;3120;48.796;9.796;2023-05-13T07:23:10;12.00;85.30
6174;DHT22;3120;48.796;9.796;2023-05-13T07:25:36;11.90;1.00
6174;DHT22;3120;48.796;9.796;2023-05-13T07:28:02;11.90;1.00
6174;DHT22;3120;48.796;9.796;2023-05-13T07:30:28;11.90;1.00
6174;DHT22;3120;48.796;9.796;2023-05-13T07:32:54;11.90;1.00
6174;DHT22;3120;48.796;9.796;2023-05-13T07:35:19;11.90;99.90
6174;DHT22;3120;48.796;9.796;2023-05-13T07:37:45;12.00;99.90
6174;DHT22;3120;48.796;9.796;2023-05-13T07:40:11;12.00;1.00
6174;DHT22;3120;48.796;9.796;2023-05-13T07:42:38;12.10;1.00
6174;DHT22;3120;48.796;9.796;2023-05-13T07:45:05;12.20;1.00
6174;DHT22;3120;48.796;9.796;2023-05-13T07:47:31;12.30;1.00
6174;DHT22;3120;48.796;9.796;2023-05-13T07:49:57;12.30;99.90
6174;DHT22;3120;48.796;9.796;2023-05-13T07:52:23;12.30;99.90
6174;DHT22;3120;48.796;9.796;2023-05-13T07:54:49;12.30;1.00
6174;DHT22;3120;48.796;9.796;2023-05-13T07:57:14;12.30;99.90
6174;DHT22;3120;48.796;9.796;2023-05-13T07:59:40;12.30;1.00
6174;DHT22;3120;48.796;9.796;2023-05-13T08:02:06;12.30;9.00
6174;DHT22;3120;48.796;9.796;2023-05-13T08:04:32;12.20;1.00
6174;DHT22;3120;48.796;9.796;2023-05-13T08:06:59;12.20;1.00
6174;DHT22;3120;48.796;9.796;2023-05-13T08:09:25;12.30;99.90
6174;DHT22;3120;48.796;9.796;2023-05-13T08:11:50;12.40;99.90
6174;DHT22;3120;48.796;9.796;2023-05-13T08:14:16;12.30;1.00
6174;DHT22;3120;48.796;9.796;2023-05-13T08:16:41;12.30;99.90
6174;DHT22;3120;48.796;9.796;2023-05-13T08:19:08;12.40;99.90
6174;DHT22;3120;48.796;9.796;2023-05-13T08:21:34;12.30;1.00
6174;DHT22;3120;48.796;9.796;2023-05-13T08:23:59;12.40;99.90
6174;DHT22;3120;48.796;9.796;2023-05-13T08:26:25;12.40;99.90
6174;DHT22;3120;48.796;9.796;2023-05-13T08:28:51;12.50;1.00
6174;DHT22;3120;48.796;9.796;2023-05-13T08:31:16;12.50;99.90
6174;DHT22;3120;48.796;9.796;2023-05-13T08:33:42;12.60;1.00
6174;DHT22;3120;48.796;9.796;2023-05-13T08:36:10;12.50;99.90
6174;DHT22;3120;48.796;9.796;2023-05-13T08:38:36;12.50;99.90
6174;DHT22;3120;48.796;9.796;2023-05-13T08:41:05;12.60;99.90
6174;DHT22;3120;48.796;9.796;2023-05-13T08:43:31;12.50;99.90
6174;DHT22;3120;48.796;9.796;2023-05-13T08:46:01;12.50;1.00
6174;DHT22;3120;48.796;9.796;2023-05-13T08:48:28;12.50;99.90
6174;DHT22;3120;48.796;9.796;2023-05-13T08:50:54;12.70;1.00
6174;DHT22;3120;48.796;9.796;2023-05-13T08:53:21;12.50;1.00
6174;DHT22;3120;48.796;9.796;2023-05-13T08:55:49;12.60;1.00
6174;DHT22;3120;48.796;9.796;2023-05-13T08:58:15;12.70;1.00
6174;DHT22;3120;48.796;9.796;2023-05-13T09:00:41;12.80;1.00
6174;DHT22;3120;48.796;9.796;2023-05-13T09:03:07;12.80;99.90
6174;DHT22;3120;48.796;9.796;2023-05-13T09:05:34;12.80;99.90
6174;DHT22;3120;48.796;9.796;2023-05-13T09:08:03;12.90;1.00
6174;DHT22;3120;48.796;9.796;2023-05-13T09:10:30;13.00;1.00
6174;DHT22;3120;48.796;9.796;2023-05-13T09:12:57;13.10;1.00
6174;DHT22;3120;48.796;9.796;2023-05-13T09:15:24;13.10;1.00
6174;DHT22;3120;48.796;9.796;2023-05-13T09:18:02;13.00;99.90
6174;DHT22;3120;48.796;9.796;2023-05-13T09:20:28;13.10;88.00
6174;DHT22;3120;48.796;9.796;2023-05-13T09:22:59;13.00;99.90
6174;DHT22;3120;48.796;9.796;2023-05-13T09:25:26;13.00;1.00
6174;DHT22;3120;48.796;9.796;2023-05-13T09:28:01;13.10;1.00
6174;DHT22;3120;48.796;9.796;2023-05-13T09:30:29;13.10;99.90
6174;DHT22;3120;48.796;9.796;2023-05-13T09:33:12;13.20;1.00
6174;DHT22;3120;48.796;9.796;2023-05-13T09:35:58;13.40;1.00
6174;DHT22;3120;48.796;9.796;2023-05-13T09:38:25;13.40;99.90
6174;DHT22;3120;48.796;9.796;2023-05-13T09:40:52;13.50;1.00
6174;DHT22;3120;48.796;9.796;2023-05-13T09:43:19;13.60;1.00
6174;DHT22;3120;48.796;9.796;2023-05-13T09:45:45;13.60;1.00
6174;DHT22;3120;48.796;9.796;2023-05-13T09:48:12;13.50;99.90
6174;DHT22;3120;48.796;9.796;2023-05-13T09:50:48;13.50;1.00
6174;DHT22;3120;48.796;9.796;2023-05-13T09:53:15;13.40;1.00
6174;DHT22;3120;48.796;9.796;2023-05-13T09:55:45;13.40;1.00
6174;DHT22;3120;48.796;9.796;2023-05-13T09:58:11;13.20;99.90
6174;DHT22;3120;48.796;9.796;2023-05-13T10:00:41;13.20;99.90
6174;DHT22;3120;48.796;9.796;2023-05-13T10:03:08;13.20;1.00
6174;DHT22;3120;48.796;9.796;2023-05-13T10:05:34;13.10;99.90
6174;DHT22;3120;48.796;9.796;2023-05-13T10:08:00;13.00;99.90
6174;DHT22;3120;48.796;9.796;2023-05-13T10:10:30;13.10;1.00
6174;DHT22;3120;48.796;9.796;2023-05-13T10:13:02;13.00;99.90
6174;DHT22;3120;48.796;9.796;2023-05-13T10:15:30;13.00;99.90
6174;DHT22;3120;48.796;9.796;2023-05-13T10:17:56;12.80;1.00
6174;DHT22;3120;48.796;9.796;2023-05-13T10:20:23;12.70;38.80
6174;DHT22;3120;48.796;9.796;2023-05-13T10:22:51;12.90;99.90
6174;DHT22;3120;48.796;9.796;2023-05-13T10:25:17;12.90;1.00
6174;DHT22;3120;48.796;9.796;2023-05-13T10:27:43;12.90;1.00
6174;DHT22;3120;48.796;9.796;2023-05-13T10:30:10;12.90;99.90
6174;DHT22;3120;48.796;9.796;2023-05-13T10:32:37;13.00;99.90
6174;DHT22;3120;48.796;9.796;2023-05-13T10:35:11;13.00;1.00
6174;DHT22;3120;48.796;9.796;2023-05-13T10:37:59;13.00;1.00
6174;DHT22;3120;48.796;9.796;2023-05-13T10:43:29;13.20;17.60
6174;DHT22;3120;48.796;9.796;2023-05-13T10:46:00;13.20;99.90
6174;DHT22;3120;48.796;9.796;2023-05-13T10:48:32;13.30;99.90
6174;DHT22;3120;48.796;9.796;2023-05-13T10:51:03;13.30;1.00
6174;DHT22;3120;48.796;9.796;2023-05-13T10:53:43;13.40;1.00
6174;DHT22;3120;48.796;9.796;2023-05-13T10:56:10;13.30;1.00
6174;DHT22;3120;48.796;9.796;2023-05-13T10:58:36;13.20;1.00
6174;DHT22;3120;48.796;9.796;2023-05-13T11:01:34;13.20;7.70
6174;DHT22;3120;48.796;9.796;2023-05-13T11:04:02;13.20;1.00
6174;DHT22;3120;48.796;9.796;2023-05-13T11:06:34;13.20;99.90
6174;DHT22;3120;48.796;9.796;2023-05-13T11:09:07;13.30;1.00
6174;DHT22;3120;48.796;9.796;2023-05-13T11:11:36;13.40;84.50
6174;DHT22;3120;48.796;9.796;2023-05-13T11:16:36;13.60;99.90
6174;DHT22;3120;48.796;9.796;2023-05-13T11:19:11;13.80;1.00
6174;DHT22;3120;48.796;9.796;2023-05-13T11:21:50;14.00;99.90
6174;DHT22;3120;48.796;9.796;2023-05-13T11:24:18;14.10;1.00
6174;DHT22;3120;48.796;9.796;2023-05-13T11:29:12;14.10;1.00
6174;DHT22;3120;48.796;9.796;2023-05-13T11:31:46;14.10;1.00
6174;DHT22;3120;48.796;9.796;2023-05-13T11:34:13;13.90;1.00
6174;DHT22;3120;48.796;9.796;2023-05-13T11:36:49;13.80;99.90
6174;DHT22;3120;48.796;9.796;2023-05-13T11:39:20;13.70;1.00
6174;DHT22;3120;48.796;9.796;2023-05-13T11:41:48;13.70;99.90
6174;DHT22;3120;48.796;9.796;2023-05-13T11:44:16;13.60;99.90
6174;DHT22;3120;48.796;9.796;2023-05-13T11:49:32;13.60;1.00
6174;DHT22;3120;48.796;9.796;2023-05-13T11:52:06;13.70;1.00
6174;DHT22;3120;48.796;9.796;2023-05-13T11:54:54;13.70;1.00
6174;DHT22;3120;48.796;9.796;2023-05-13T12:02:17;13.60;99.90
6174;DHT22;3120;48.796;9.796;2023-05-13T12:04:44;13.60;99.90
6174;DHT22;3120;48.796;9.796;2023-05-13T12:07:12;13.70;99.90
6174;DHT22;3120;48.796;9.796;2023-05-13T12:09:38;13.80;99.90
6174;DHT22;3120;48.796;9.796;2023-05-13T12:12:04;13.80;99.90
6174;DHT22;3120;48.796;9.796;2023-05-13T12:14:30;13.90;1.00
6174;DHT22;3120;48.796;9.796;2023-05-13T12:16:57;14.00;99.90
6174;DHT22;3120;48.796;9.796;2023-05-13T12:19:23;14.00;99.90
6174;DHT22;3120;48.796;9.796;2023-05-13T12:21:49;13.90;66.30
6174;DHT22;3120;48.796;9.796;2023-05-13T12:24:20;13.80;1.00
6174;DHT22;3120;48.796;9.796;2023-05-13T12:26:46;13.70;99.90
6174;DHT22;3120;48.796;9.796;2023-05-13T12:29:12;13.60;99.90
6174;DHT22;3120;48.796;9.796;2023-05-13T12:31:39;13.70;28.60
6174;DHT22;3120;48.796;9.796;2023-05-13T12:34:05;13.70;1.00
6174;DHT22;3120;48.796;9.796;2023-05-13T12:36:30;13.80;53.00
6174;DHT22;3120;48.796;9.796;2023-05-13T12:39:05;13.90;99.90
6174;DHT22;3120;48.796;9.796;2023-05-13T12:41:36;13.90;1.00
6174;DHT22;3120;48.796;9.796;2023-05-13T12:44:11;13.90;99.90
6174;DHT22;3120;48.796;9.796;2023-05-13T12:46:37;13.80;99.90
6174;DHT22;3120;48.796;9.796;2023-05-13T12:49:04;13.80;99.90
6174;DHT22;3120;48.796;9.796;2023-05-13T12:51:31;13.90;51.90
6174;DHT22;3120;48.796;9.796;2023-05-13T12:53:59;13.90;1.00
6174;DHT22;3120;48.796;9.796;2023-05-13T12:56:25;13.90;1.00
6174;DHT22;3120;48.796;9.796;2023-05-13T12:58:52;14.00;1.00
6174;DHT22;3120;48.796;9.796;2023-05-13T13:01:19;14.00;99.90
6174;DHT22;3120;48.796;9.796;2023-05-13T13:03:45;14.00;1.00
6174;DHT22;3120;48.796;9.796;2023-05-13T13:06:11;14.00;99.90
6174;DHT22;3120;48.796;9.796;2023-05-13T13:08:38;14.00;99.90
6174;DHT22;3120;48.796;9.796;2023-05-13T13:11:03;14.00;99.90
6174;DHT22;3120;48.796;9.796;2023-05-13T13:13:30;13.80;99.90
6174;DHT22;3120;48.796;9.796;2023-05-13T13:15:56;13.80;99.90
6174;DHT22;3120;48.796;9.796;2023-05-13T13:18:22;13.80;99.90
6174;DHT22;3120;48.796;9.796;2023-05-13T13:20:49;13.80;1.00
6174;DHT22;3120;48.796;9.796;2023-05-13T13:23:16;13.70;99.90
6174;DHT22;3120;48.796;9.796;2023-05-13T13:25:41;13.60;99.90
6174;DHT22;3120;48.796;9.796;2023-05-13T13:28:07;13.70;99.90
6174;DHT22;3120;48.796;9.796;2023-05-13T13:30:32;13.70;99.90
6174;DHT22;3120;48.796;9.796;2023-05-13T13:32:58;13.70;1.00
6174;DHT22;3120;48.796;9.796;2023-05-13T13:35:24;13.60;99.90
6174;DHT22;3120;48.796;9.796;2023-05-13T13:37:49;13.70;1.00
6174;DHT22;3120;48.796;9.796;2023-05-13T13:40:15;13.70;99.90
6174;DHT22;3120;48.796;9.796;2023-05-13T13:42:41;13.70;1.00
6174;DHT22;3120;48.796;9.796;2023-05-13T13:45:07;13.80;99.90
6174;DHT22;3120;48.796;9.796;2023-05-13T13:47:33;13.80;85.60
6174;DHT22;3120;48.796;9.796;2023-05-13T13:49:59;13.70;1.00
6174;DHT22;3120;48.796;9.796;2023-05-13T13:52:24;13.80;14.60
6174;DHT22;3120;48.796;9.796;2023-05-13T13:54:53;13.90;99.90
6174;DHT22;3120;48.796;9.796;2023-05-13T13:57:18;14.20;1.00
6174;DHT22;3120;48.796;9.796;2023-05-13T13:59:44;14.30;99.90
6174;DHT22;3120;48.796;9.796;2023-05-13T14:02:10;14.30;29.90
6174;DHT22;3120;48.796;9.796;2023-05-13T14:04:35;14.40;99.90
6174;DHT22;3120;48.796;9.796;2023-05-13T14:07:01;14.40;99.90
6174;DHT22;3120;48.796;9.796;2023-05-13T14:09:27;14.30;85.40
6174;DHT22;3120;48.796;9.796;2023-05-13T14:11:52;14.30;99.90
6174;DHT22;3120;48.796;9.796;2023-05-13T14:14:18;14.30;99.90
6174;DHT22;3120;48.796;9.796;2023-05-13T14:16:43;14.30;99.90
6174;DHT22;3120;48.796;9.796;2023-05-13T14:19:10;14.50;1.00
6174;DHT22;3120;48.796;9.796;2023-05-13T14:21:35;14.70;99.90
6174;DHT22;3120;48.796;9.796;2023-05-13T14:24:01;14.90;99.90
6174;DHT22;3120;48.796;9.796;2023-05-13T14:26:28;14.90;99.90
6174;DHT22;3120;48.796;9.796;2023-05-13T14:28:53;14.80;62.90
6174;DHT22;3120;48.796;9.796;2023-05-13T14:31:19;14.70;1.00
6174;DHT22;3120;48.796;9.796;2023-05-13T14:33:45;14.80;1.00
6174;DHT22;3120;48.796;9.796;2023-05-13T14:36:10;14.80;1.00
6174;DHT22;3120;48.796;9.796;2023-05-13T14:38:43;14.80;99.90
6174;DHT22;3120;48.796;9.796;2023-05-13T14:41:09;14.60;1.00
6174;DHT22;3120;48.796;9.796;2023-05-13T14:43:34;14.60;1.00
6174;DHT22;3120;48.796;9.796;2023-05-13T14:46:00;14.60;99.90
6174;DHT22;3120;48.796;9.796;2023-05-13T14:48:25;14.50;1.00
6174;DHT22;3120;48.796;9.796;2023-05-13T14:50:51;14.40;1.00
6174;DHT22;3120;48.796;9.796;2023-05-13T14:53:18;14.40;1.00
6174;DHT22;3120;48.796;9.796;2023-05-13T14:55:43;14.30;99.90
6174;DHT22;3120;48.796;9.796;2023-05-13T14:58:09;14.30;1.00
6174;DHT22;3120;48.796;9.796;2023-05-13T15:00:35;14.10;99.90
6174;DHT22;3120;48.796;9.796;2023-05-13T15:03:05;14.10;93.70
6174;DHT22;3120;48.796;9.796;2023-05-13T15:05:31;14.10;1.00
6174;DHT22;3120;48.796;9.796;2023-05-13T15:07:57;14.10;99.90
6174;DHT22;3120;48.796;9.796;2023-05-13T15:10:23;14.20;99.90
6174;DHT22;3120;48.796;9.796;2023-05-13T15:12:49;14.20;1.00
6174;DHT22;3120;48.796;9.796;2023-05-13T15:15:14;14.20;99.90
6174;DHT22;3120;48.796;9.796;2023-05-13T15:17:40;14.20;1.00
6174;DHT22;3120;48.796;9.796;2023-05-13T15:20:06;14.30;99.90
6174;DHT22;3120;48.796;9.796;2023-05-13T15:22:32;14.50;99.90
6174;DHT22;3120;48.796;9.796;2023-05-13T15:24:57;14.50;1.00
6174;DHT22;3120;48.796;9.796;2023-05-13T15:27:28;14.60;1.00
6174;DHT22;3120;48.796;9.796;2023-05-13T15:29:53;14.80;1.00
6174;DHT22;3120;48.796;9.796;2023-05-13T15:32:19;15.00;1.00
6174;DHT22;3120;48.796;9.796;2023-05-13T15:34:44;15.30;99.90
6174;DHT22;3120;48.796;9.796;2023-05-13T15:37:10;15.50;1.00
6174;DHT22;3120;48.796;9.796;2023-05-13T15:39:36;15.50;99.90
6174;DHT22;3120;48.796;9.796;2023-05-13T15:42:01;15.70;99.90
6174;DHT22;3120;48.796;9.796;2023-05-13T15:44:27;15.70;56.10
6174;DHT22;3120;48.796;9.796;2023-05-13T15:46:52;15.60;99.90
6174;DHT22;3120;48.796;9.796;2023-05-13T15:49:18;15.60;90.30
6174;DHT22;3120;48.796;9.796;2023-05-13T15:51:44;15.60;99.90
6174;DHT22;3120;48.796;9.796;2023-05-13T15:54:09;15.50;99.90
6174;DHT22;3120;48.796;9.796;2023-05-13T15:56:36;15.50;99.90
6174;DHT22;3120;48.796;9.796;2023-05-13T15:59:01;15.60;93.60
6174;DHT22;3120;48.796;9.796;2023-05-13T16:01:27;15.60;99.90
6174;DHT22;3120;48.796;9.796;2023-05-13T16:03:52;15.60;1.00
6174;DHT22;3120;48.796;9.796;2023-05-13T16:06:18;15.40;99.90
6174;DHT22;3120;48.796;9.796;2023-05-13T16:08:44;15.40;99.90
6174;DHT22;3120;48.796;9.796;2023-05-13T16:11:09;15.40;99.90
6174;DHT22;3120;48.796;9.796;2023-05-13T16:13:37;15.40;26.40
6174;DHT22;3120;48.796;9.796;2023-05-13T16:16:04;15.20;99.90
6174;DHT22;3120;48.796;9.796;2023-05-13T16:18:30;15.20;99.90
6174;DHT22;3120;48.796;9.796;2023-05-13T16:20:55;15.10;99.90
6174;DHT22;3120;48.796;9.796;2023-05-13T16:23:21;15.10;99.90